Time;durP1;ratioP1;P1;durP2;ratioP2;P2;SDS_P1;SDS_P2;PMS_P1;PMS_P2;Temp;Humidity;BMP_temperature;BMP_pressure;BME280_temperature;BME280_humidity;BME280_pressure;Samples;Min_cycle;Max_cycle;Signal;HPM_P1;HPM_P2
2022/09/13 00:01:44;;;;;;;4.00;2.10;;;;;;;15.23;53.98;99833.86;117232;1188;22110;-67
2022/09/13 00:04:18;;;;;;;3.00;2.20;;;;;;;15.23;53.90;99830.70;117020;1187;22980;-58
2022/09/13 00:06:45;;;;;;;3.40;1.90;;;;;;;15.23;54.21;99830.32;117090;1187;23572;-57
2022/09/13 00:09:19;;;;;;;3.30;1.80;;;;;;;15.24;54.31;99832.92;116993;1184;24166;-64
2022/09/13 00:11:52;;;;;;;4.00;2.00;;;;;;;15.24;54.45;99830.83;117060;1186;22324;-67
2022/09/13 00:14:25;;;;;;;4.80;1.80;;;;;;;15.22;54.31;99826.65;117010;1187;23480;-58
2022/09/13 00:16:54;;;;;;;2.90;1.70;;;;;;;15.21;54.32;99825.67;117068;1184;24179;-58
2022/09/13 00:19:21;;;;;;;3.20;1.70;;;;;;;15.24;54.27;99825.34;116938;1187;24186;-67
2022/09/13 00:21:48;;;;;;;2.50;1.70;;;;;;;15.24;54.32;99822.00;116996;1187;24211;-58
2022/09/13 00:24:16;;;;;;;2.60;2.00;;;;;;;15.22;54.41;99820.15;117066;1185;23493;-68
2022/09/13 00:26:44;;;;;;;3.10;2.20;;;;;;;15.20;54.89;99816.52;117084;1187;23557;-57
2022/09/13 00:29:10;;;;;;;3.50;2.00;;;;;;;15.20;54.41;99815.98;117059;1184;23447;-57
2022/09/13 00:31:38;;;;;;;3.10;2.00;;;;;;;15.18;54.33;99814.29;117021;1185;21864;-67
2022/09/13 00:34:05;;;;;;;3.70;2.20;;;;;;;15.17;54.20;99814.50;117101;1186;21862;-67
2022/09/13 00:36:32;;;;;;;2.50;2.10;;;;;;;15.15;54.18;99813.14;117282;1182;22093;-67
2022/09/13 00:38:59;;;;;;;4.20;2.00;;;;;;;15.15;54.36;99813.69;117097;1187;23367;-57
2022/09/13 00:41:34;;;;;;;3.10;2.40;;;;;;;15.14;54.41;99807.52;117077;1185;23468;-68
2022/09/13 00:44:02;;;;;;;4.20;2.10;;;;;;;15.13;54.55;99807.05;117079;1186;23650;-58
2022/09/13 00:46:41;;;;;;;3.90;2.40;;;;;;;15.10;54.44;99806.10;117085;1185;23528;-67
2022/09/13 00:49:32;;;;;;;3.20;2.50;;;;;;;15.09;54.57;99806.69;117062;1182;21847;-58
2022/09/13 00:52:10;;;;;;;3.80;2.40;;;;;;;15.09;54.74;99803.32;117021;1187;21965;-68
2022/09/13 00:54:47;;;;;;;4.60;2.50;;;;;;;15.09;54.71;99802.42;117149;1183;21859;-67
2022/09/13 00:57:17;;;;;;;3.20;2.30;;;;;;;15.09;54.61;99799.25;117140;1187;21859;-66
2022/09/13 00:59:55;;;;;;;3.20;2.30;;;;;;;15.09;54.72;99795.89;117306;1187;23557;-58
2022/09/13 01:02:22;;;;;;;2.90;2.20;;;;;;;15.10;54.65;99793.92;117115;1187;23453;-67
2022/09/13 01:04:57;;;;;;;3.40;2.50;;;;;;;15.11;54.78;99796.71;117109;1182;23542;-67
2022/09/13 01:07:27;;;;;;;5.30;2.20;;;;;;;15.10;55.01;99792.66;116975;1187;21856;-68
2022/09/13 01:09:58;;;;;;;2.80;2.10;;;;;;;15.10;55.06;99789.67;117076;1184;21912;-68
2022/09/13 01:12:31;;;;;;;4.80;2.80;;;;;;;15.10;54.90;99791.95;117070;1183;22928;-68
2022/09/13 01:15:01;;;;;;;3.50;2.30;;;;;;;15.11;54.98;99789.63;117097;1187;23583;-57
2022/09/13 01:17:32;;;;;;;5.10;2.20;;;;;;;15.12;55.00;99793.85;116994;1186;22100;-57
2022/09/13 01:20:00;;;;;;;4.10;2.60;;;;;;;15.11;55.29;99795.64;117039;1189;22932;-67
2022/09/13 01:22:53;;;;;;;3.70;2.50;;;;;;;15.12;54.98;99794.55;117016;1189;22061;-57
2022/09/13 01:25:43;;;;;;;2.60;2.10;;;;;;;15.11;55.05;99790.16;117097;1187;21887;-67
2022/09/13 01:28:40;;;;;;;3.20;2.20;;;;;;;15.08;55.03;99782.68;117114;1186;24229;-58
2022/09/13 01:31:21;;;;;;;3.40;2.40;;;;;;;15.06;54.91;99782.05;117095;1187;23566;-58
2022/09/13 01:34:12;;;;;;;3.80;2.50;;;;;;;15.05;55.07;99786.88;117109;1187;22929;-67
2022/09/13 01:36:53;;;;;;;4.10;2.40;;;;;;;15.06;55.00;99780.30;117144;1186;22929;-57
2022/09/13 01:39:59;;;;;;;4.00;2.60;;;;;;;15.06;55.12;99779.95;116968;1184;23491;-57
2022/09/13 01:42:29;;;;;;;3.50;2.00;;;;;;;15.06;55.18;99782.21;117001;1187;23468;-57
2022/09/13 01:45:18;;;;;;;2.70;1.90;;;;;;;15.09;55.12;99781.92;117135;1184;23480;-57
2022/09/13 01:47:56;;;;;;;3.40;1.50;;;;;;;15.12;55.58;99782.88;117149;1184;23016;-57
2022/09/13 01:50:45;;;;;;;3.20;1.50;;;;;;;15.09;55.51;99782.31;117315;1186;23558;-67
2022/09/13 01:53:18;;;;;;;3.10;1.60;;;;;;;15.08;55.49;99780.05;117089;1187;22928;-67
2022/09/13 01:56:27;;;;;;;7.00;1.40;;;;;;;15.08;55.58;99781.63;117101;1185;23560;-57
2022/09/13 01:59:02;;;;;;;3.00;1.40;;;;;;;15.07;55.59;99780.95;117011;1187;22469;-67
2022/09/13 02:01:40;;;;;;;1.60;1.00;;;;;;;15.07;55.51;99779.21;117053;1184;23450;-67
2022/09/13 02:04:25;;;;;;;2.40;1.10;;;;;;;15.03;55.44;99771.56;117160;1186;21845;-67
2022/09/13 02:07:07;;;;;;;2.80;1.20;;;;;;;15.01;55.43;99777.67;117027;1186;22929;-67
2022/09/13 02:09:45;;;;;;;1.60;1.00;;;;;;;14.98;55.32;99774.78;117208;1187;24714;-57
2022/09/13 02:12:28;;;;;;;;;;;;;;;14.94;55.31;99775.65;117128;1186;22909;-56
2022/09/13 02:15:19;;;;;;;2.10;0.90;;;;;;;14.92;55.16;99775.75;117277;1186;23580;-57
2022/09/13 02:17:49;;;;;;;3.40;1.50;;;;;;;14.88;55.21;99775.01;117247;1185;21865;-57
2022/09/13 02:20:20;;;;;;;2.80;1.20;;;;;;;14.85;55.10;99772.63;117119;1190;21859;-66
2022/09/13 02:22:56;;;;;;;4.30;1.20;;;;;;;14.84;55.22;99768.09;117039;1187;21963;-57
2022/09/13 02:25:36;;;;;;;2.60;0.80;;;;;;;14.80;55.27;99770.52;117078;1186;24179;-66
2022/09/13 02:28:12;;;;;;;1.90;1.10;;;;;;;14.78;55.32;99768.70;116974;1184;22935;-66
2022/09/13 02:30:48;;;;;;;3.00;1.20;;;;;;;14.77;55.14;99769.63;117027;1187;22831;-56
2022/09/13 02:33:37;;;;;;;1.00;0.60;;;;;;;14.76;55.10;99770.69;117008;1185;21919;-66
2022/09/13 02:36:11;;;;;;;3.30;1.00;;;;;;;14.77;55.22;99776.50;117046;1187;22647;-57
2022/09/13 02:38:49;;;;;;;1.70;1.10;;;;;;;14.74;55.15;99773.61;116940;1186;23598;-57
2022/09/13 02:41:26;;;;;;;2.80;1.10;;;;;;;14.69;55.30;99773.25;117041;1187;22904;-66
2022/09/13 02:44:23;;;;;;;3.80;1.60;;;;;;;14.65;55.16;99773.59;116926;1188;23456;-57
2022/09/13 02:47:21;;;;;;;2.60;1.60;;;;;;;14.59;55.25;99774.16;117092;1187;23483;-66
2022/09/13 02:50:14;;;;;;;4.60;2.10;;;;;;;14.53;55.26;99770.88;117032;1186;24179;-56
2022/09/13 02:53:01;;;;;;;3.30;1.80;;;;;;;14.46;55.35;99762.11;117065;1183;22950;-65
2022/09/13 02:56:08;;;;;;;2.70;1.80;;;;;;;14.42;55.35;99762.77;117097;1187;21859;-66
2022/09/13 02:59:10;;;;;;;3.50;2.00;;;;;;;14.39;55.35;99765.55;117058;1186;21865;-65
2022/09/13 03:01:49;;;;;;;3.60;2.20;;;;;;;14.34;55.60;99764.31;117304;1182;23536;-66
2022/09/13 03:04:27;;;;;;;4.60;1.70;;;;;;;14.32;55.47;99763.89;116964;1187;23557;-66
2022/09/13 03:06:55;;;;;;;2.90;1.70;;;;;;;14.31;55.65;99761.42;116975;1187;23560;-66
2022/09/13 03:09:37;;;;;;;2.00;1.50;;;;;;;14.32;55.71;99762.30;117075;1188;23498;-66
2022/09/13 03:12:40;;;;;;;2.70;1.50;;;;;;;14.33;55.79;99762.08;117085;1187;23595;-66
2022/09/13 03:15:16;;;;;;;3.10;1.10;;;;;;;14.36;55.94;99760.89;116927;1187;22864;-57
2022/09/13 03:18:17;;;;;;;10.10;1.30;;;;;;;14.41;55.87;99758.95;117095;1184;24155;-66
2022/09/13 03:21:20;;;;;;;4.60;1.20;;;;;;;14.46;56.02;99756.65;117013;1186;21868;-65
2022/09/13 03:24:14;;;;;;;2.80;0.90;;;;;;;14.51;56.08;99754.32;117069;1184;23544;-66
2022/09/13 03:27:10;;;;;;;1.20;0.70;;;;;;;14.56;55.77;99751.83;117320;1186;22994;-67
2022/09/13 03:29:53;;;;;;;1.70;0.70;;;;;;;14.61;55.98;99748.30;117203;1186;23713;-68
2022/09/13 03:32:58;;;;;;;3.30;0.50;;;;;;;14.66;56.09;99750.41;117058;1185;23911;-57
2022/09/13 03:35:34;;;;;;;0.90;0.40;;;;;;;14.70;56.28;99752.39;117028;1182;24158;-68
2022/09/13 03:38:18;;;;;;;1.30;0.50;;;;;;;14.74;56.19;99754.17;119161;1180;21757;-59
2022/09/13 03:40:48;;;;;;;3.50;0.50;;;;;;;14.77;56.24;99753.17;119166;1185;21850;-58
2022/09/13 03:43:37;;;;;;;1.40;0.40;;;;;;;14.81;56.26;99761.48;117650;1189;21855;-68
2022/09/13 03:46:17;;;;;;;1.50;0.70;;;;;;;14.83;56.70;99762.81;117153;1185;23491;-57
2022/09/13 03:48:59;;;;;;;1.20;0.60;;;;;;;14.87;56.37;99761.98;117107;1188;26593;-68
2022/09/13 03:51:28;;;;;;;0.90;0.70;;;;;;;14.92;56.34;99756.99;117141;1185;21871;-67
2022/09/13 03:54:03;;;;;;;0.80;0.50;;;;;;;14.95;56.54;99756.34;117279;1182;21870;-65
2022/09/13 03:56:30;;;;;;;2.30;0.60;;;;;;;15.00;56.69;99754.56;119296;1185;21783;-58
2022/09/13 03:58:57;;;;;;;2.60;0.50;;;;;;;15.04;56.49;99757.39;119311;1185;22072;-68
2022/09/13 04:01:31;;;;;;;5.10;0.50;;;;;;;15.09;56.35;99760.22;119363;1185;22183;-59
2022/09/13 04:04:00;;;;;;;1.50;0.40;;;;;;;15.12;56.22;99761.14;119367;1182;22162;-68
2022/09/13 04:06:34;;;;;;;1.00;0.40;;;;;;;15.16;56.33;99761.70;119360;1185;22126;-59
2022/09/13 04:09:11;;;;;;;2.10;0.50;;;;;;;15.18;56.36;99766.03;117693;1185;21869;-58
2022/09/13 04:11:40;;;;;;;0.30;0.30;;;;;;;15.20;56.60;99765.08;117274;1185;22822;-68
2022/09/13 04:14:15;;;;;;;0.90;0.60;;;;;;;15.23;56.47;99768.11;117324;1185;21857;-57
2022/09/13 04:16:43;;;;;;;3.20;0.70;;;;;;;15.25;56.62;99768.55;117352;1183;23028;-69
2022/09/13 04:19:30;;;;;;;2.70;1.10;;;;;;;15.30;56.95;99771.20;117310;1186;21862;-68
2022/09/13 04:21:58;;;;;;;2.00;0.70;;;;;;;15.35;56.75;99773.98;117279;1185;21869;-67
2022/09/13 04:24:42;;;;;;;1.80;0.80;;;;;;;15.42;56.92;99771.38;117095;1188;21883;-66
2022/09/13 04:27:24;;;;;;;4.00;0.90;;;;;;;15.52;56.54;99772.41;117093;1186;21868;-57
2022/09/13 04:30:05;;;;;;;3.70;1.40;;;;;;;15.58;56.49;99771.08;117146;1186;21888;-57
2022/09/13 04:32:41;;;;;;;3.20;0.80;;;;;;;15.65;56.65;99772.02;117125;1186;24917;-59
2022/09/13 04:35:23;;;;;;;1.90;0.80;;;;;;;15.73;56.78;99773.43;117142;1182;22927;-69
2022/09/13 04:37:55;;;;;;;2.20;0.80;;;;;;;15.82;56.69;99775.73;117835;1186;24181;-59
2022/09/13 04:40:38;;;;;;;1.30;0.60;;;;;;;15.92;56.63;99780.77;117083;1187;22166;-69
2022/09/13 04:43:05;;;;;;;2.30;0.80;;;;;;;16.00;56.48;99778.14;117261;1185;24176;-59
2022/09/13 04:45:32;;;;;;;1.90;0.70;;;;;;;16.05;56.25;99780.23;117076;1186;21850;-59
2022/09/13 04:48:04;;;;;;;2.50;1.80;;;;;;;16.07;56.16;99782.43;117104;1187;21885;-58
2022/09/13 04:50:42;;;;;;;2.00;0.70;;;;;;;16.06;56.14;99781.07;117158;1186;22909;-59
2022/09/13 04:53:17;;;;;;;2.50;0.90;;;;;;;15.92;56.26;99775.68;117164;1187;23091;-65
2022/09/13 04:55:51;;;;;;;4.80;0.80;;;;;;;15.85;56.49;99773.64;117059;1187;23465;-69
2022/09/13 04:58:26;;;;;;;2.20;0.90;;;;;;;15.83;56.65;99771.44;117122;1186;22638;-69
2022/09/13 05:01:01;;;;;;;1.20;0.50;;;;;;;15.86;56.28;99768.66;116938;1182;24176;-67
2022/09/13 05:03:35;;;;;;;1.60;0.70;;;;;;;16.01;55.99;99767.11;117095;1186;21847;-59
2022/09/13 05:06:20;;;;;;;2.20;0.40;;;;;;;16.07;55.79;99767.75;117041;1186;22173;-69
2022/09/13 05:08:54;;;;;;;1.30;0.50;;;;;;;16.11;55.96;99768.30;117074;1186;24274;-58
2022/09/13 05:11:28;;;;;;;2.60;0.90;;;;;;;16.14;55.82;99770.98;117056;1188;21861;-59
2022/09/13 05:13:57;;;;;;;2.60;0.80;;;;;;;16.17;55.80;99772.77;117802;1185;23487;-59
2022/09/13 05:16:32;;;;;;;2.20;0.70;;;;;;;16.23;55.78;99777.49;118232;1184;24249;-59
2022/09/13 05:19:03;;;;;;;1.60;0.80;;;;;;;16.12;56.14;99775.48;117192;1186;23562;-59
2022/09/13 05:21:41;;;;;;;1.30;0.80;;;;;;;16.11;56.11;99776.45;117153;1182;23565;-59
2022/09/13 05:24:16;;;;;;;1.80;0.80;;;;;;;16.11;56.10;99774.29;117211;1185;21847;-59
2022/09/13 05:26:52;;;;;;;1.70;0.90;;;;;;;16.12;56.03;99773.19;117233;1186;21858;-70
2022/09/13 05:29:23;;;;;;;1.80;0.90;;;;;;;16.13;56.08;99774.58;117203;1186;23691;-69
2022/09/13 05:31:50;;;;;;;2.30;1.30;;;;;;;16.14;56.08;99774.48;117119;1186;21900;-58
2022/09/13 05:34:18;;;;;;;1.90;1.00;;;;;;;16.27;56.03;99778.38;117105;1186;23557;-59
2022/09/13 05:36:52;;;;;;;2.10;1.00;;;;;;;16.40;55.62;99777.05;117237;1186;22897;-59
2022/09/13 05:39:35;;;;;;;1.30;0.70;;;;;;;16.43;55.52;99772.48;117172;1188;23560;-69
2022/09/13 05:42:29;;;;;;;3.20;0.80;;;;;;;16.45;55.41;99774.02;117120;1187;21857;-69
2022/09/13 05:44:56;;;;;;;1.80;1.10;;;;;;;16.45;55.44;99772.03;116970;1187;23491;-59
2022/09/13 05:47:23;;;;;;;1.80;0.70;;;;;;;16.49;55.56;99776.80;117003;1188;21857;-59
2022/09/13 05:49:50;;;;;;;1.10;0.60;;;;;;;16.55;55.38;99776.90;117187;1182;24163;-69
2022/09/13 05:52:36;;;;;;;1.40;0.60;;;;;;;16.57;55.18;99779.28;116995;1187;23579;-59
2022/09/13 05:55:04;;;;;;;1.20;0.80;;;;;;;16.55;55.11;99787.02;117137;1186;23580;-59
2022/09/13 05:57:32;;;;;;;1.60;0.60;;;;;;;16.50;55.03;99789.17;117200;1186;22098;-59
2022/09/13 06:00:04;;;;;;;1.50;0.80;;;;;;;16.45;55.07;99784.27;117036;1187;23566;-59
2022/09/13 06:02:35;;;;;;;1.60;0.80;;;;;;;16.42;55.12;99785.12;117172;1183;23904;-58
2022/09/13 06:05:04;;;;;;;2.70;0.70;;;;;;;16.45;55.32;99786.38;117019;1183;22927;-59
2022/09/13 06:07:31;;;;;;;1.30;0.80;;;;;;;16.50;55.39;99786.17;117251;1186;21875;-59
2022/09/13 06:10:03;;;;;;;4.10;0.90;;;;;;;16.60;55.34;99787.33;117154;1183;23557;-60
2022/09/13 06:12:38;;;;;;;1.00;0.70;;;;;;;16.67;55.23;99785.57;117237;1185;22965;-69
2022/09/13 06:15:10;;;;;;;2.30;1.00;;;;;;;16.73;55.18;99789.72;117386;1186;22215;-68
2022/09/13 06:17:43;;;;;;;1.60;1.10;;;;;;;16.80;55.16;99795.57;119244;1186;21813;-70
2022/09/13 06:20:17;;;;;;;1.20;0.80;;;;;;;16.85;55.08;99796.21;118016;1184;22942;-59
2022/09/13 06:22:54;;;;;;;2.20;0.90;;;;;;;16.89;54.86;99802.06;117128;1184;22812;-69
2022/09/13 06:25:28;;;;;;;3.40;0.90;;;;;;;16.91;54.87;99807.09;116939;1187;21914;-63
2022/09/13 06:28:05;;;;;;;1.90;0.60;;;;;;;16.92;54.81;99809.52;117052;1186;21871;-68
2022/09/13 06:30:43;;;;;;;3.10;1.00;;;;;;;16.94;54.94;99812.81;117715;1186;21842;-60
2022/09/13 06:33:17;;;;;;;2.10;0.90;;;;;;;16.96;54.71;99809.38;117233;1186;22638;-60
2022/09/13 06:35:54;;;;;;;;;;;;;;;16.94;54.56;99808.38;117172;1187;21913;-59
2022/09/13 06:38:25;;;;;;;1.20;0.70;;;;;;;16.93;54.53;99809.83;117078;1187;21852;-60
2022/09/13 06:41:01;;;;;;;2.50;1.20;;;;;;;16.95;54.54;99812.27;117016;1187;22884;-59
2022/09/13 06:43:28;;;;;;;3.10;1.10;;;;;;;16.99;54.35;99809.60;117220;1186;21856;-60
2022/09/13 06:46:00;;;;;;;2.30;0.90;;;;;;;17.04;54.26;99809.86;117090;1187;22925;-70
2022/09/13 06:48:30;;;;;;;2.80;1.10;;;;;;;17.09;54.25;99808.77;117053;1186;21862;-70
2022/09/13 06:51:15;;;;;;;0.90;0.50;;;;;;;17.14;54.08;99803.55;117218;1187;24145;-60
2022/09/13 06:53:55;;;;;;;1.30;0.50;;;;;;;17.21;54.04;99801.77;117099;1188;21857;-60
2022/09/13 06:56:33;;;;;;;2.40;0.70;;;;;;;17.30;53.88;99800.29;117106;1185;21859;-70
2022/09/13 06:59:10;;;;;;;0.70;0.60;;;;;;;17.43;53.86;99801.42;117164;1185;21876;-59
2022/09/13 07:01:40;;;;;;;1.30;0.60;;;;;;;17.54;53.39;99801.21;117097;1186;21865;-59
2022/09/13 07:04:09;;;;;;;0.70;0.50;;;;;;;17.61;52.78;99804.09;117145;1184;23282;-69
2022/09/13 07:06:46;;;;;;;0.60;0.40;;;;;;;17.66;52.65;99800.61;117094;1186;21855;-71
2022/09/13 07:09:23;;;;;;;1.00;0.50;;;;;;;17.83;52.34;99796.40;117181;1186;22897;-70
2022/09/13 07:11:54;;;;;;;1.30;0.50;;;;;;;18.05;52.07;99796.69;117108;1186;21856;-70
2022/09/13 07:14:30;;;;;;;0.50;0.40;;;;;;;18.28;51.59;99788.41;117333;1184;22933;-70
2022/09/13 07:17:05;;;;;;;1.30;0.30;;;;;;;18.52;50.92;99789.40;117034;1185;22132;-60
2022/09/13 07:19:31;;;;;;;1.70;0.90;;;;;;;18.71;50.32;99790.16;116950;1185;24155;-57
2022/09/13 07:22:05;;;;;;;1.10;0.40;;;;;;;18.94;49.96;99784.27;117067;1185;22626;-58
2022/09/13 07:24:43;;;;;;;0.90;0.50;;;;;;;19.04;49.94;99786.17;117197;1183;23564;-59
2022/09/13 07:27:17;;;;;;;1.60;0.40;;;;;;;19.22;50.20;99782.34;117139;1183;23179;-68
2022/09/13 07:29:50;;;;;;;1.10;0.40;;;;;;;19.37;49.77;99787.33;117365;1187;22929;-70
2022/09/13 07:32:18;;;;;;;0.50;0.30;;;;;;;19.54;49.59;99787.08;117134;1186;21881;-59
2022/09/13 07:34:54;;;;;;;0.40;0.40;;;;;;;19.88;49.42;99786.52;117085;1187;23558;-69
2022/09/13 07:37:21;;;;;;;1.10;0.60;;;;;;;20.11;48.72;99790.79;117173;1187;21895;-69
2022/09/13 07:39:48;;;;;;;1.40;0.70;;;;;;;20.22;47.99;99792.63;117228;1188;23558;-59
2022/09/13 07:42:22;;;;;;;0.90;0.60;;;;;;;20.25;48.33;99788.34;117100;1186;23107;-69
2022/09/13 07:44:57;;;;;;;;;;;;;;;20.23;47.79;99791.17;117223;1188;23528;-69
2022/09/13 07:47:32;;;;;;;2.90;1.20;;;;;;;20.22;48.10;99796.92;117050;1187;21897;-59
2022/09/13 07:50:08;;;;;;;2.10;0.90;;;;;;;20.15;48.00;99790.23;117665;1176;86090;-84
2022/09/13 07:52:37;;;;;;;2.30;1.10;;;;;;;20.10;47.75;99785.69;117414;1187;21851;-83
2022/09/13 07:55:12;;;;;;;;;;;;;;;20.06;48.28;99790.60;117405;1187;23448;-84
2022/09/13 07:57:39;;;;;;;5.50;1.00;;;;;;;20.06;47.72;99787.39;117375;1188;21868;-83
2022/09/13 08:00:09;;;;;;;2.40;1.10;;;;;;;20.05;47.39;99785.48;117259;1188;21856;-84
2022/09/13 08:02:38;;;;;;;8.50;1.60;;;;;;;20.05;47.09;99786.22;117379;1189;21863;-84
2022/09/13 08:05:06;;;;;;;4.90;1.30;;;;;;;20.09;47.67;99784.73;117298;1187;21849;-83
2022/09/13 08:07:33;;;;;;;7.10;1.30;;;;;;;20.19;48.16;99785.14;117365;1187;21847;-85
2022/09/13 08:09:59;;;;;;;2.00;0.90;;;;;;;20.37;47.75;99772.14;117329;1189;22947;-84
2022/09/13 08:12:26;;;;;;;1.50;0.80;;;;;;;20.52;47.17;99776.53;117308;1187;22937;-84
2022/09/13 08:14:57;;;;;;;3.30;0.80;;;;;;;20.57;46.94;99776.20;117320;1188;21894;-82
2022/09/13 08:17:24;;;;;;;1.90;0.80;;;;;;;20.53;46.98;99775.73;117338;1187;21850;-82
2022/09/13 08:19:51;;;;;;;4.50;0.90;;;;;;;20.50;47.08;99774.52;117334;1187;21861;-82
2022/09/13 08:22:24;;;;;;;3.20;1.00;;;;;;;20.56;47.06;99778.57;117292;1186;21859;-83
2022/09/13 08:24:56;;;;;;;3.40;1.20;;;;;;;20.70;46.71;99772.94;117300;1188;23467;-84
2022/09/13 08:27:23;;;;;;;2.30;0.60;;;;;;;20.80;46.43;99770.86;117390;1187;21948;-83
2022/09/13 08:29:50;;;;;;;0.80;0.30;;;;;;;20.87;46.54;99765.46;117331;1186;22721;-82
2022/09/13 08:32:17;;;;;;;1.00;0.60;;;;;;;20.85;45.45;99767.31;117359;1185;21881;-82
2022/09/13 08:34:47;;;;;;;1.80;0.90;;;;;;;20.85;45.93;99768.23;117319;1189;21876;-83
2022/09/13 08:37:14;;;;;;;7.80;0.70;;;;;;;20.87;45.62;99763.29;117319;1188;21861;-84
2022/09/13 08:39:41;;;;;;;1.60;0.60;;;;;;;21.01;46.15;99763.83;117306;1188;23620;-84
2022/09/13 08:42:42;;;;;;;2.40;0.40;;;;;;;21.15;45.32;99761.45;117327;1187;23447;-83
2022/09/13 08:45:09;;;;;;;4.80;0.50;;;;;;;21.10;45.02;99768.59;117107;1188;23438;-83
2022/09/13 08:47:47;;;;;;;2.30;0.50;;;;;;;20.85;45.57;99762.68;117298;1188;22345;-84
2022/09/13 08:50:20;;;;;;;3.50;0.60;;;;;;;20.65;45.77;99761.96;117055;1188;22907;-83
2022/09/13 08:53:02;;;;;;;5.50;0.80;;;;;;;20.77;46.06;99762.14;117279;1188;22627;-83
2022/09/13 08:55:45;;;;;;;2.50;0.50;;;;;;;20.92;45.93;99757.95;117342;1189;21859;-83
2022/09/13 08:58:34;;;;;;;3.70;0.80;;;;;;;21.02;45.28;99757.88;117430;1186;23463;-83
2022/09/13 09:01:16;;;;;;;2.60;0.80;;;;;;;21.06;45.47;99754.90;117307;1188;23450;-84
2022/09/13 09:03:45;;;;;;;1.30;0.70;;;;;;;21.10;45.69;99754.66;117233;1189;22619;-84
2022/09/13 09:06:15;;;;;;;2.00;0.50;;;;;;;21.27;45.33;99751.71;117217;1184;21909;-83
2022/09/13 09:08:48;;;;;;;5.10;0.60;;;;;;;21.41;44.90;99753.29;117288;1186;21884;-84
2022/09/13 09:11:27;;;;;;;1.40;0.50;;;;;;;21.48;45.31;99751.22;117282;1188;22634;-84
2022/09/13 09:14:01;;;;;;;1.00;0.40;;;;;;;21.54;45.15;99751.55;117272;1189;22927;-83
2022/09/13 09:16:32;;;;;;;1.10;0.60;;;;;;;21.55;45.13;99750.98;117219;1189;22914;-84
2022/09/13 09:19:09;;;;;;;1.90;0.50;;;;;;;21.55;44.61;99751.30;117230;1184;22937;-84
2022/09/13 09:21:36;;;;;;;1.10;0.50;;;;;;;21.66;44.87;99746.98;117143;1188;21881;-84
2022/09/13 09:24:03;;;;;;;2.20;0.60;;;;;;;21.84;44.89;99742.59;117086;1188;23462;-83
2022/09/13 09:26:30;;;;;;;2.00;0.60;;;;;;;21.95;44.20;99741.83;117259;1188;21862;-84
2022/09/13 09:29:09;;;;;;;2.70;0.50;;;;;;;21.96;44.20;99743.89;117319;1187;21863;-86
2022/09/13 09:31:58;;;;;;;1.70;0.50;;;;;;;21.96;44.47;99744.55;117311;1188;24153;-83
2022/09/13 09:34:50;;;;;;;2.30;0.50;;;;;;;22.17;44.27;99742.77;117313;1188;21868;-83
2022/09/13 09:37:25;;;;;;;3.00;0.60;;;;;;;22.45;43.79;99746.20;117259;1187;21865;-83
2022/09/13 09:40:09;;;;;;;2.90;0.90;;;;;;;22.52;43.55;99745.88;117219;1187;23435;-83
2022/09/13 09:42:47;;;;;;;2.40;0.70;;;;;;;22.40;43.25;99745.11;117256;1188;21868;-85
2022/09/13 09:45:29;;;;;;;2.80;0.80;;;;;;;22.33;43.90;99741.25;117207;1188;22920;-84
2022/09/13 09:48:03;;;;;;;0.40;0.40;;;;;;;22.35;42.80;99741.70;117180;1189;23567;-84
2022/09/13 09:50:38;;;;;;;2.60;0.50;;;;;;;22.32;42.90;99750.43;117325;1187;21970;-83
2022/09/13 09:53:06;;;;;;;3.50;0.70;;;;;;;22.32;43.06;99747.81;117417;1187;22656;-84
2022/09/13 09:55:44;;;;;;;1.50;0.50;;;;;;;22.38;42.36;99745.74;117167;1186;22920;-83
2022/09/13 09:58:15;;;;;;;2.20;0.60;;;;;;;22.49;43.00;99744.79;117342;1188;23623;-83
2022/09/13 10:01:01;;;;;;;1.30;0.50;;;;;;;22.59;42.97;99742.52;117314;1183;22919;-83
2022/09/13 10:03:28;;;;;;;0.80;0.60;;;;;;;22.69;42.90;99742.47;117359;1188;21863;-82
2022/09/13 10:06:13;;;;;;;1.50;0.70;;;;;;;22.69;42.73;99742.13;117312;1189;22956;-83
2022/09/13 10:08:41;;;;;;;6.70;1.40;;;;;;;22.56;42.66;99745.58;117314;1188;21863;-84
2022/09/13 10:11:08;;;;;;;35.80;2.40;;;;;;;22.40;42.73;99748.27;117326;1188;22161;-82
2022/09/13 10:13:37;;;;;;;58.30;5.50;;;;;;;22.18;42.57;99746.95;117288;1189;21871;-81
2022/09/13 10:16:06;;;;;;;7.00;0.80;;;;;;;21.93;42.50;99752.30;117177;1187;22815;-82
2022/09/13 10:18:37;;;;;;;2.90;0.70;;;;;;;21.73;42.78;99758.84;117335;1187;21865;-82
2022/09/13 10:21:16;;;;;;;1.90;0.90;;;;;;;21.49;43.40;99772.92;117405;1187;21930;-81
2022/09/13 10:24:23;;;;;;;1.00;0.40;;;;;;;21.21;44.12;99778.52;117350;1186;21846;-81
2022/09/13 10:26:57;;;;;;;2.40;0.80;;;;;;;20.84;44.87;99787.17;117399;1187;21867;-81
2022/09/13 10:29:39;;;;;;;2.60;0.40;;;;;;;20.45;45.70;99786.44;117338;1187;21867;-82
2022/09/13 10:32:11;;;;;;;1.40;0.60;;;;;;;20.27;45.93;99785.02;117247;1186;23438;-83
2022/09/13 10:34:58;;;;;;;0.90;0.60;;;;;;;20.19;46.26;99781.41;117258;1187;23404;-83
2022/09/13 10:37:30;;;;;;;1.50;0.60;;;;;;;20.25;46.10;99778.94;117451;1187;21903;-82
2022/09/13 10:40:28;;;;;;;5.10;1.00;;;;;;;20.26;46.40;99779.03;117399;1187;21970;-84
2022/09/13 10:43:03;;;;;;;4.30;0.80;;;;;;;20.34;46.68;99780.69;117405;1187;21860;-87
2022/09/13 10:45:34;;;;;;;9.70;1.10;;;;;;;20.42;46.75;99776.43;117461;1186;23493;-82
2022/09/13 10:48:25;;;;;;;244.80;27.70;;;;;;;20.53;46.74;99776.80;117426;1187;22669;-83
2022/09/13 10:51:06;;;;;;;6.60;1.70;;;;;;;20.66;46.49;99774.98;117462;1187;22058;-82
2022/09/13 10:53:41;;;;;;;8.40;1.10;;;;;;;20.74;46.51;99771.60;117403;1187;21866;-83
2022/09/13 10:56:21;;;;;;;6.00;1.10;;;;;;;20.81;46.49;99767.93;117343;1185;21916;-82
2022/09/13 10:58:50;;;;;;;15.80;1.60;;;;;;;20.96;46.32;99766.63;117360;1186;21864;-84
2022/09/13 11:02:01;;;;;;;9.20;1.40;;;;;;;21.23;46.53;99762.55;117413;1187;21852;-82
2022/09/13 11:04:47;;;;;;;5.00;1.40;;;;;;;21.45;45.96;99768.20;117404;1187;21868;-82
2022/09/13 11:07:44;;;;;;;4.00;1.10;;;;;;;21.49;45.80;99764.57;117376;1187;21862;-81
2022/09/13 11:10:17;;;;;;;65.20;8.00;;;;;;;21.50;46.40;99757.71;117279;1185;22915;-84
2022/09/13 11:13:16;;;;;;;7.60;1.40;;;;;;;21.74;45.55;99754.30;117221;1184;23378;-82
2022/09/13 11:16:08;;;;;;;3.00;0.90;;;;;;;21.94;44.98;99752.41;117329;1188;21872;-83
2022/09/13 11:18:43;;;;;;;3.90;1.10;;;;;;;21.97;44.41;99755.75;117229;1189;21865;-83
2022/09/13 11:21:36;;;;;;;2.30;0.90;;;;;;;21.90;44.38;99753.39;117076;1186;21886;-81
2022/09/13 11:24:25;;;;;;;3.80;1.10;;;;;;;21.86;44.66;99756.70;117178;1186;22821;-82
2022/09/13 11:27:38;;;;;;;182.80;23.10;;;;;;;21.78;44.61;99761.53;117262;1184;22916;-82
2022/09/13 11:30:29;;;;;;;5.70;1.40;;;;;;;21.53;45.44;99768.05;117222;1188;21882;-82
2022/09/13 11:33:08;;;;;;;7.30;1.20;;;;;;;21.21;46.04;99760.19;117164;1186;22950;-82
2022/09/13 11:35:51;;;;;;;9.00;1.60;;;;;;;20.88;46.30;99766.95;117263;1189;22197;-86
2022/09/13 11:38:30;;;;;;;13.10;1.60;;;;;;;20.73;46.27;99766.65;117339;1186;23454;-86
2022/09/13 11:41:39;;;;;;;10.50;1.80;;;;;;;20.73;46.45;99768.22;117268;1187;22841;-86
2022/09/13 11:44:10;;;;;;;3.20;0.90;;;;;;;20.79;46.54;99768.06;117325;1186;21885;-87
2022/09/13 11:47:07;;;;;;;13.50;1.70;;;;;;;20.77;46.52;99768.20;117319;1185;23565;-82
2022/09/13 11:50:13;;;;;;;2.50;0.80;;;;;;;20.66;46.50;99770.48;117334;1187;23473;-82
2022/09/13 11:53:05;;;;;;;2.20;0.90;;;;;;;20.50;46.62;99771.31;117422;1186;22398;-82
2022/09/13 11:55:32;;;;;;;3.90;1.00;;;;;;;20.35;46.82;99772.05;117467;1187;23446;-82
2022/09/13 11:58:24;;;;;;;1.70;1.20;;;;;;;20.30;46.95;99764.73;117412;1186;21888;-82
2022/09/13 12:00:56;;;;;;;1.70;0.90;;;;;;;20.43;47.44;99768.21;117362;1187;21900;-83
2022/09/13 12:03:38;;;;;;;3.60;0.90;;;;;;;20.62;47.00;99765.18;117475;1187;22970;-84
2022/09/13 12:06:18;;;;;;;1.70;1.00;;;;;;;20.77;46.74;99768.33;117317;1188;22181;-82
2022/09/13 12:08:57;;;;;;;2.70;0.90;;;;;;;20.79;46.61;99770.73;117281;1187;22817;-83
2022/09/13 12:11:35;;;;;;;3.30;1.00;;;;;;;20.68;46.43;99776.39;117402;1187;21860;-83
2022/09/13 12:14:17;;;;;;;2.60;1.30;;;;;;;20.50;46.66;99781.48;117368;1186;23689;-83